createdAt,value
2018-11-12T00:00:24.472Z,8.70
2018-11-12T00:02:56.440Z,8.70
2018-11-12T00:05:24.551Z,8.70
2018-11-12T00:07:52.870Z,8.80
2018-11-12T00:10:20.984Z,8.80
2018-11-12T00:12:48.988Z,8.80
2018-11-12T00:15:17.066Z,8.90
2018-11-12T00:17:45.259Z,8.90
2018-11-12T00:20:14.465Z,8.90
2018-11-12T00:22:42.969Z,8.90
2018-11-12T00:25:11.021Z,9.00
2018-11-12T00:27:40.324Z,9.00
2018-11-12T00:30:11.661Z,9.00
2018-11-12T00:32:39.820Z,9.00
2018-11-12T00:35:08.728Z,9.00
2018-11-12T00:37:36.807Z,9.00
2018-11-12T00:40:05.517Z,9.10
2018-11-12T00:42:33.531Z,9.10
2018-11-12T00:45:01.808Z,9.10
2018-11-12T00:47:29.891Z,9.10
2018-11-12T00:49:58.046Z,9.10
2018-11-12T00:52:26.134Z,9.00
2018-11-12T00:54:55.134Z,9.00
2018-11-12T00:57:23.201Z,9.00
2018-11-12T00:59:51.272Z,9.10
2018-11-12T01:02:19.379Z,9.10
2018-11-12T01:04:47.417Z,9.10
2018-11-12T01:07:15.660Z,9.00
2018-11-12T01:09:43.719Z,9.00
2018-11-12T01:12:11.771Z,8.90
2018-11-12T01:14:39.859Z,8.90
2018-11-12T01:17:07.875Z,8.80
2018-11-12T01:19:35.979Z,8.90
2018-11-12T01:22:04.045Z,8.90
2018-11-12T01:24:32.094Z,8.90
2018-11-12T01:27:00.192Z,8.90
2018-11-12T01:29:28.231Z,9.00
2018-11-12T01:31:56.307Z,8.90
2018-11-12T01:34:24.399Z,9.00
2018-11-12T01:36:52.462Z,9.00
2018-11-12T01:39:20.560Z,9.00
2018-11-12T01:41:48.649Z,9.00
2018-11-12T01:44:16.680Z,9.00
2018-11-12T01:46:44.745Z,9.00
2018-11-12T01:49:12.824Z,8.90
2018-11-12T01:51:40.883Z,9.00
2018-11-12T01:54:08.987Z,9.00
2018-11-12T01:56:37.037Z,9.00
2018-11-12T01:59:05.159Z,9.00
2018-11-12T02:01:33.236Z,9.00
2018-11-12T02:04:01.278Z,9.00
2018-11-12T02:06:29.313Z,8.90
2018-11-12T02:08:57.473Z,8.90
2018-11-12T02:11:25.472Z,9.00
2018-11-12T02:13:53.684Z,9.00
2018-11-12T02:16:21.706Z,9.00
2018-11-12T02:18:49.793Z,9.00
2018-11-12T02:21:17.847Z,9.00
2018-11-12T02:23:45.960Z,9.00
2018-11-12T02:26:13.999Z,9.10
2018-11-12T02:28:42.089Z,9.00
2018-11-12T02:31:10.154Z,9.00
2018-11-12T02:33:38.241Z,9.00
2018-11-12T02:36:06.349Z,9.00
2018-11-12T02:38:34.490Z,8.90
2018-11-12T02:41:02.536Z,8.90
2018-11-12T02:43:30.654Z,8.80
2018-11-12T02:45:58.765Z,8.80
2018-11-12T02:48:26.764Z,8.70
2018-11-12T02:50:54.844Z,8.70
2018-11-12T02:53:22.937Z,8.70
2018-11-12T02:55:50.988Z,8.70
2018-11-12T02:58:19.067Z,8.70
2018-11-12T03:00:47.109Z,8.70
2018-11-12T03:04:18.676Z,8.60
2018-11-12T03:06:46.768Z,8.60
2018-11-12T03:09:15.425Z,8.50
2018-11-12T03:11:43.531Z,8.50
2018-11-12T03:14:11.592Z,8.50
2018-11-12T03:16:39.995Z,8.40
2018-11-12T03:19:08.069Z,8.30
2018-11-12T03:21:36.135Z,8.30
2018-11-12T03:24:04.519Z,8.30
2018-11-12T03:26:32.556Z,8.30
2018-11-12T03:29:00.642Z,8.30
2018-11-12T03:31:28.778Z,8.30
2018-11-12T03:33:56.867Z,8.30
2018-11-12T03:36:25.020Z,8.30
2018-11-12T03:38:53.069Z,8.30
2018-11-12T03:41:21.127Z,8.30
2018-11-12T03:43:49.225Z,8.30
2018-11-12T03:46:17.387Z,8.30
2018-11-12T03:48:46.467Z,8.20
2018-11-12T03:51:14.553Z,8.30
2018-11-12T03:53:42.660Z,8.30
2018-11-12T03:56:10.784Z,8.30
2018-11-12T03:58:38.837Z,8.30
2018-11-12T04:01:06.921Z,8.30
2018-11-12T04:03:34.993Z,8.30
2018-11-12T04:06:03.118Z,8.30
2018-11-12T04:08:31.116Z,8.30
2018-11-12T04:11:14.014Z,8.40
2018-11-12T04:13:42.013Z,8.40
2018-11-12T04:16:10.110Z,8.40
2018-11-12T04:18:38.163Z,8.50
2018-11-12T04:21:06.255Z,8.50
2018-11-12T04:23:34.325Z,8.50
2018-11-12T04:26:02.390Z,8.60
2018-11-12T04:28:30.439Z,8.50
2018-11-12T04:30:58.511Z,8.60
2018-11-12T04:33:26.586Z,8.60
2018-11-12T04:35:54.698Z,8.50
2018-11-12T04:38:22.791Z,8.50
2018-11-12T04:40:50.823Z,8.40
2018-11-12T04:43:18.889Z,8.40
2018-11-12T04:45:47.034Z,8.40
2018-11-12T04:48:15.065Z,8.40
2018-11-12T04:50:43.124Z,8.40
2018-11-12T04:54:35.747Z,8.40
2018-11-12T04:57:03.881Z,8.30
2018-11-12T04:59:31.901Z,8.40
2018-11-12T05:02:00.029Z,8.40
2018-11-12T05:04:28.036Z,8.40
2018-11-12T05:06:56.112Z,8.40
2018-11-12T05:09:24.201Z,8.40
2018-11-12T05:11:52.325Z,8.40
2018-11-12T05:14:20.319Z,8.40
2018-11-12T05:16:49.004Z,8.30
2018-11-12T05:19:17.010Z,8.30
2018-11-12T05:21:45.111Z,8.20
2018-11-12T05:24:13.172Z,8.30
2018-11-12T05:26:41.243Z,8.30
2018-11-12T05:29:09.315Z,8.30
2018-11-12T05:31:37.351Z,8.30
2018-11-12T05:34:05.870Z,8.30
2018-11-12T05:36:33.911Z,8.30
2018-11-12T05:39:01.938Z,8.30
2018-11-12T05:41:30.106Z,8.30
2018-11-12T05:43:58.111Z,8.30
2018-11-12T05:46:26.252Z,8.40
2018-11-12T05:48:54.299Z,8.40
2018-11-12T05:51:22.376Z,8.40
2018-11-12T05:53:50.476Z,8.50
2018-11-12T05:56:18.622Z,8.50
2018-11-12T05:58:46.706Z,8.40
2018-11-12T06:01:14.765Z,8.40
2018-11-12T06:03:42.819Z,8.50
2018-11-12T06:06:11.636Z,8.50
2018-11-12T06:08:39.662Z,8.50
2018-11-12T06:11:07.740Z,8.50
2018-11-12T06:13:35.824Z,8.40
2018-11-12T06:16:03.893Z,8.50
2018-11-12T06:18:31.993Z,8.40
2018-11-12T06:21:00.059Z,8.50
2018-11-12T06:23:28.147Z,8.40
2018-11-12T06:25:56.192Z,8.40
2018-11-12T06:28:24.248Z,8.40
2018-11-12T06:30:52.368Z,8.50
2018-11-12T06:33:20.509Z,8.50
2018-11-12T06:35:48.580Z,8.50
2018-11-12T06:38:16.634Z,8.50
2018-11-12T06:40:44.777Z,8.60
2018-11-12T06:43:12.922Z,8.70
2018-11-12T06:45:40.983Z,8.70
2018-11-12T06:48:09.023Z,8.70
2018-11-12T06:50:37.128Z,8.70
2018-11-12T06:53:05.475Z,8.70
2018-11-12T06:55:33.455Z,8.90
2018-11-12T06:58:01.531Z,8.90
2018-11-12T07:00:31.767Z,9.00
2018-11-12T07:02:59.836Z,9.00
2018-11-12T07:05:28.342Z,9.00
2018-11-12T07:07:56.421Z,9.10
2018-11-12T07:10:25.585Z,9.10
2018-11-12T07:12:54.504Z,9.10
2018-11-12T07:15:23.868Z,9.20
2018-11-12T07:17:51.934Z,9.30
2018-11-12T07:20:21.466Z,9.40
2018-11-12T07:22:49.823Z,9.60
2018-11-12T07:25:19.404Z,10.30
2018-11-12T07:27:47.450Z,11.10
2018-11-12T07:30:18.749Z,11.60
2018-11-12T07:32:47.477Z,11.90
2018-11-12T07:35:16.278Z,12.10
2018-11-12T07:37:45.391Z,12.40
2018-11-12T07:40:14.235Z,12.50
2018-11-12T07:42:42.537Z,12.80
2018-11-12T07:45:17.051Z,12.70
2018-11-12T07:47:46.031Z,12.30
2018-11-12T07:50:16.354Z,12.00
2018-11-12T07:52:44.622Z,12.00
2018-11-12T07:58:03.396Z,12.10
2018-11-12T08:00:33.713Z,12.20
2018-11-12T08:03:08.227Z,11.80
2018-11-12T08:05:36.828Z,11.60
2018-11-12T08:08:05.176Z,11.60
2018-11-12T08:10:33.258Z,11.50
2018-11-12T08:13:01.402Z,11.20
2018-11-12T08:15:29.441Z,11.20
2018-11-12T08:17:57.495Z,11.30
2018-11-12T08:20:26.402Z,11.20
2018-11-12T08:22:54.507Z,11.30
2018-11-12T08:25:22.623Z,11.20
2018-11-12T08:33:31.922Z,11.30
2018-11-12T08:36:00.058Z,11.20
2018-11-12T08:38:28.056Z,11.10
2018-11-12T08:40:56.159Z,11.20
2018-11-12T08:43:24.208Z,11.10
2018-11-12T08:45:52.280Z,11.10
2018-11-12T08:48:20.332Z,11.00
2018-11-12T08:50:48.504Z,11.00
2018-11-12T08:53:16.592Z,11.00
2018-11-12T08:55:44.789Z,11.00
2018-11-12T08:58:13.822Z,11.00
2018-11-12T09:00:40.891Z,11.00
2018-11-12T09:03:08.977Z,11.00
2018-11-12T09:05:37.097Z,11.20
2018-11-12T09:08:05.960Z,11.20
2018-11-12T09:10:34.648Z,11.10
2018-11-12T09:13:02.802Z,11.10
2018-11-12T09:15:30.942Z,11.10
2018-11-12T09:17:59.476Z,11.10
2018-11-12T09:20:28.616Z,11.10
2018-11-12T09:22:56.955Z,11.20
2018-11-12T09:25:26.162Z,11.30
2018-11-12T09:27:54.313Z,11.50
2018-11-12T09:30:25.687Z,11.60
2018-11-12T09:32:53.891Z,11.70
2018-11-12T09:35:24.187Z,11.80
2018-11-12T09:37:53.368Z,11.90
2018-11-12T09:40:26.778Z,12.00
2018-11-12T09:42:54.828Z,11.90
2018-11-12T09:45:22.917Z,12.00
2018-11-12T09:47:51.045Z,12.00
2018-11-12T09:50:20.290Z,12.00
2018-11-12T09:52:50.626Z,12.00
2018-11-12T09:55:19.409Z,12.10
2018-11-12T09:57:49.013Z,12.20
2018-11-12T10:00:18.497Z,12.40
2018-11-12T10:02:47.822Z,12.40
2018-11-12T10:05:17.229Z,12.50
2018-11-12T10:07:46.323Z,12.60
2018-11-12T10:10:34.368Z,12.80
2018-11-12T10:13:02.243Z,12.90
2018-11-12T10:15:32.515Z,13.10
2018-11-12T10:17:59.907Z,13.20
2018-11-12T10:21:28.926Z,13.30
2018-11-12T10:23:56.944Z,13.50
2018-11-12T10:26:25.243Z,13.90
2018-11-12T10:28:53.332Z,13.60
2018-11-12T10:31:22.446Z,13.70
2018-11-12T10:33:50.582Z,13.70
2018-11-12T10:36:18.636Z,13.80
2018-11-12T10:38:46.750Z,13.70
2018-11-12T10:41:14.857Z,13.60
2018-11-12T10:43:43.998Z,13.60
2018-11-12T10:46:12.279Z,13.50
2018-11-12T10:48:40.520Z,13.40
2018-11-12T10:51:08.682Z,13.40
2018-11-12T10:53:36.831Z,13.30
2018-11-12T10:56:04.995Z,13.20
2018-11-12T10:58:34.139Z,13.20
2018-11-12T11:01:08.092Z,13.30
2018-11-12T11:03:41.768Z,13.20
2018-11-12T11:06:09.928Z,13.30
2018-11-12T11:08:38.953Z,13.30
2018-11-12T11:11:07.017Z,13.30
2018-11-12T11:13:35.148Z,13.20
2018-11-12T11:16:03.236Z,13.10
2018-11-12T11:19:34.508Z,13.20
2018-11-12T11:22:02.620Z,13.10
2018-11-12T11:24:31.225Z,13.20
2018-11-12T11:26:59.800Z,13.10
2018-11-12T11:29:27.928Z,13.20
2018-11-12T11:31:56.028Z,13.20
2018-11-12T11:34:24.127Z,13.20
2018-11-12T11:36:52.159Z,13.00
2018-11-12T11:39:20.211Z,13.00
2018-11-12T11:41:48.348Z,12.80
2018-11-12T11:44:16.695Z,12.70
2018-11-12T11:46:44.743Z,12.60
2018-11-12T11:49:13.955Z,12.60
2018-11-12T11:51:42.057Z,12.60
2018-11-12T11:54:10.099Z,12.60
2018-11-12T11:56:38.465Z,12.50
2018-11-12T11:59:06.948Z,12.50
2018-11-12T12:01:35.068Z,12.60
2018-11-12T12:04:03.100Z,12.60
2018-11-12T12:06:31.316Z,12.70
2018-11-12T12:08:59.553Z,12.80
2018-11-12T12:11:27.683Z,12.80
2018-11-12T12:13:55.787Z,12.90
2018-11-12T12:16:23.910Z,13.00
2018-11-12T12:18:52.025Z,13.00
2018-11-12T12:21:20.092Z,13.10
2018-11-12T12:23:48.272Z,13.10
2018-11-12T12:26:16.452Z,13.30
2018-11-12T12:28:44.787Z,13.40
2018-11-12T12:31:13.162Z,13.60
2018-11-12T12:33:41.370Z,13.70
2018-11-12T12:36:09.546Z,13.90
2018-11-12T12:38:37.749Z,14.00
2018-11-12T12:41:05.989Z,13.90
2018-11-12T12:43:34.095Z,13.70
2018-11-12T12:46:02.864Z,13.60
2018-11-12T12:48:30.836Z,13.60
2018-11-12T12:50:58.952Z,13.60
2018-11-12T12:53:27.060Z,13.60
2018-11-12T12:55:55.397Z,13.60
2018-11-12T12:58:23.381Z,13.60
2018-11-12T13:00:51.325Z,13.70
2018-11-12T13:03:19.362Z,13.80
2018-11-12T13:05:47.440Z,13.90
2018-11-12T13:08:15.556Z,13.90
2018-11-12T13:10:43.579Z,13.90
2018-11-12T13:13:11.683Z,13.90
2018-11-12T13:15:39.735Z,13.90
2018-11-12T13:18:07.864Z,13.90
2018-11-12T13:20:35.869Z,13.80
2018-11-12T13:23:04.212Z,14.00
2018-11-12T13:25:32.239Z,14.20
2018-11-12T13:28:00.556Z,14.20
2018-11-12T13:30:28.591Z,14.30
2018-11-12T13:32:56.720Z,14.30
2018-11-12T13:35:32.392Z,14.20
2018-11-12T13:38:01.009Z,14.10
2018-11-12T13:40:29.109Z,14.00
2018-11-12T13:42:58.404Z,14.00
2018-11-12T13:45:26.986Z,13.90
2018-11-12T13:47:55.521Z,13.80
2018-11-12T13:50:24.983Z,13.70
2018-11-12T13:52:53.551Z,13.60
2018-11-12T13:55:22.500Z,13.60
2018-11-12T13:57:50.617Z,13.50
2018-11-12T14:00:20.345Z,13.50
2018-11-12T14:02:49.134Z,13.50
2018-11-12T14:05:18.726Z,13.50
2018-11-12T14:07:47.438Z,13.50
2018-11-12T14:10:17.044Z,13.50
2018-11-12T14:12:45.447Z,13.50
2018-11-12T14:15:18.060Z,13.50
2018-11-12T14:17:46.665Z,13.50
2018-11-12T14:20:14.785Z,13.50
2018-11-12T14:22:42.896Z,13.50
2018-11-12T14:25:12.295Z,13.50
2018-11-12T14:27:40.436Z,13.50
2018-11-12T14:30:10.019Z,13.50
2018-11-12T14:32:38.072Z,13.50
2018-11-12T14:35:06.863Z,13.40
2018-11-12T14:37:35.134Z,13.40
2018-11-12T14:40:03.177Z,13.30
2018-11-12T14:42:31.351Z,13.30
2018-11-12T14:44:59.478Z,13.20
2018-11-12T14:47:27.499Z,13.20
2018-11-12T14:49:55.564Z,13.10
2018-11-12T14:52:23.680Z,13.10
2018-11-12T14:54:51.788Z,13.00
2018-11-12T14:57:19.922Z,13.00
2018-11-12T14:59:47.979Z,13.10
2018-11-12T15:02:16.058Z,13.10
2018-11-12T15:04:44.149Z,13.10
2018-11-12T15:07:12.240Z,13.10
2018-11-12T15:09:40.341Z,13.00
2018-11-12T15:12:08.466Z,13.00
2018-11-12T15:14:36.552Z,12.90
2018-11-12T15:17:04.836Z,12.90
2018-11-12T15:19:33.068Z,12.90
2018-11-12T15:22:01.460Z,12.90
2018-11-12T15:24:29.817Z,12.90
2018-11-12T15:26:57.909Z,12.90
2018-11-12T15:29:26.293Z,12.90
2018-11-12T15:31:54.319Z,12.80
2018-11-12T15:34:26.357Z,12.70
2018-11-12T15:36:54.519Z,12.70
2018-11-12T15:39:22.448Z,12.60
2018-11-12T15:41:50.552Z,12.60
2018-11-12T15:44:18.645Z,12.50
2018-11-12T15:46:46.800Z,12.50
2018-11-12T15:49:14.930Z,12.50
2018-11-12T15:51:43.025Z,12.40
2018-11-12T15:54:11.094Z,12.40
2018-11-12T15:56:39.161Z,12.40
2018-11-12T15:59:07.261Z,12.40
2018-11-12T16:01:35.336Z,12.40
2018-11-12T16:04:03.432Z,12.50
2018-11-12T16:06:31.617Z,12.50
2018-11-12T16:08:59.666Z,12.60
2018-11-12T16:11:27.776Z,12.60
2018-11-12T16:13:56.122Z,12.60
2018-11-12T16:16:24.173Z,12.60
2018-11-12T16:18:52.258Z,12.60
2018-11-12T16:21:20.351Z,12.50
2018-11-12T16:23:48.500Z,12.50
2018-11-12T16:26:16.717Z,12.50
2018-11-12T16:28:44.861Z,12.50
2018-11-12T16:31:12.931Z,12.50
2018-11-12T16:33:40.989Z,12.50
2018-11-12T16:36:09.068Z,12.50
2018-11-12T16:38:37.284Z,12.50
2018-11-12T16:41:05.470Z,12.40
2018-11-12T16:43:33.563Z,12.40
2018-11-12T16:46:01.795Z,12.40
2018-11-12T16:48:29.819Z,12.50
2018-11-12T16:50:57.916Z,12.50
2018-11-12T16:53:25.954Z,12.40
2018-11-12T16:55:54.220Z,12.40
2018-11-12T16:58:22.313Z,12.40
2018-11-12T17:00:51.440Z,12.40
2018-11-12T17:03:19.466Z,12.40
2018-11-12T17:05:47.536Z,12.50
2018-11-12T17:08:15.645Z,12.50
2018-11-12T17:10:43.712Z,12.50
2018-11-12T17:13:12.824Z,12.60
2018-11-12T17:15:40.980Z,12.70
2018-11-12T17:18:09.078Z,12.70
2018-11-12T17:20:37.210Z,12.70
2018-11-12T17:23:05.535Z,12.70
2018-11-12T17:25:33.584Z,12.60
2018-11-12T17:28:02.000Z,12.60
2018-11-12T17:30:30.140Z,12.60
2018-11-12T17:32:58.194Z,12.60
2018-11-12T17:35:26.286Z,12.60
2018-11-12T17:37:54.354Z,12.50
2018-11-12T17:40:23.948Z,12.50
2018-11-12T17:42:52.760Z,12.50
2018-11-12T17:45:22.136Z,12.50
2018-11-12T17:47:51.244Z,12.50
2018-11-12T17:50:19.314Z,12.40
2018-11-12T17:52:47.395Z,12.40
2018-11-12T17:55:15.468Z,12.40
2018-11-12T17:57:44.527Z,12.40
2018-11-12T18:00:17.162Z,12.40
2018-11-12T18:02:45.524Z,12.40
2018-11-12T18:05:13.589Z,12.30
2018-11-12T18:07:42.263Z,12.30
2018-11-12T18:10:11.345Z,12.20
2018-11-12T18:12:39.509Z,12.20
2018-11-12T18:15:10.139Z,12.10
2018-11-12T18:17:38.281Z,12.00
2018-11-12T18:20:09.900Z,12.00
2018-11-12T18:22:38.277Z,12.00
2018-11-12T18:25:06.431Z,12.00
2018-11-12T18:27:34.836Z,11.90
2018-11-12T18:30:03.126Z,11.90
2018-11-12T18:32:31.093Z,11.90
2018-11-12T18:34:59.258Z,11.90
2018-11-12T18:37:27.306Z,11.90
2018-11-12T18:39:55.393Z,11.90
2018-11-12T18:42:23.462Z,11.80
2018-11-12T18:44:51.524Z,11.80
2018-11-12T18:47:19.708Z,11.70
2018-11-12T18:49:47.776Z,11.70
2018-11-12T18:52:15.872Z,11.70
2018-11-12T18:54:43.934Z,11.70
2018-11-12T18:57:12.009Z,11.60
2018-11-12T18:59:40.048Z,11.60
2018-11-12T19:02:08.164Z,11.70
2018-11-12T19:04:36.266Z,11.60
2018-11-12T19:07:04.453Z,11.60
2018-11-12T19:09:32.611Z,11.60
2018-11-12T19:12:00.730Z,11.50
2018-11-12T19:14:28.831Z,11.50
2018-11-12T19:16:56.894Z,11.40
2018-11-12T19:19:24.977Z,11.40
2018-11-12T19:21:52.996Z,11.30
2018-11-12T19:24:21.157Z,11.30
2018-11-12T19:26:49.273Z,11.30
2018-11-12T19:29:17.359Z,11.30
2018-11-12T19:31:45.434Z,11.30
2018-11-12T19:34:13.492Z,11.30
2018-11-12T19:36:41.581Z,11.30
2018-11-12T19:39:10.420Z,11.30
2018-11-12T19:41:38.829Z,11.30
2018-11-12T19:44:06.889Z,11.20
2018-11-12T19:46:35.015Z,11.20
2018-11-12T19:49:03.175Z,11.20
2018-11-12T19:51:31.396Z,11.10
2018-11-12T19:53:59.320Z,11.00
2018-11-12T19:56:27.367Z,11.00
2018-11-12T19:58:55.579Z,11.00
2018-11-12T20:01:23.597Z,10.90
2018-11-12T20:03:51.707Z,10.90
2018-11-12T20:06:19.788Z,10.90
2018-11-12T20:08:47.843Z,10.90
2018-11-12T20:11:15.901Z,10.80
2018-11-12T20:13:44.016Z,10.80
2018-11-12T20:16:12.080Z,10.80
2018-11-12T20:18:40.125Z,10.70
2018-11-12T20:21:08.241Z,10.70
2018-11-12T20:23:36.375Z,10.70
2018-11-12T20:26:04.797Z,10.70
2018-11-12T20:28:32.973Z,10.60
2018-11-12T20:31:01.165Z,10.60
2018-11-12T20:33:29.398Z,10.60
2018-11-12T20:35:57.450Z,10.50
2018-11-12T20:38:25.565Z,10.50
2018-11-12T20:40:53.688Z,10.50
2018-11-12T20:43:21.777Z,10.50
2018-11-12T20:45:49.959Z,10.50
2018-11-12T20:48:18.113Z,10.40
2018-11-12T20:50:46.133Z,10.40
2018-11-12T20:53:14.358Z,10.40
2018-11-12T20:55:42.548Z,10.30
2018-11-12T20:58:10.635Z,10.30
2018-11-12T21:00:38.712Z,10.30
2018-11-12T21:03:06.739Z,10.30
2018-11-12T21:05:34.821Z,10.30
2018-11-12T21:08:02.945Z,10.30
2018-11-12T21:10:31.092Z,10.20
2018-11-12T21:12:59.235Z,10.20
2018-11-12T21:15:27.326Z,10.20
2018-11-12T21:17:55.438Z,10.20
2018-11-12T21:20:24.761Z,10.20
2018-11-12T21:22:52.933Z,10.10
2018-11-12T21:25:22.221Z,10.10
2018-11-12T21:27:50.409Z,10.20
2018-11-12T21:30:21.230Z,10.20
2018-11-12T21:32:49.463Z,10.20
2018-11-12T21:35:17.533Z,10.20
2018-11-12T21:37:47.251Z,10.30
2018-11-12T21:40:18.860Z,10.30
2018-11-12T21:42:46.974Z,10.30
2018-11-12T21:45:17.731Z,10.40
2018-11-12T21:47:45.860Z,10.40
2018-11-12T21:50:15.477Z,10.40
2018-11-12T21:52:43.574Z,10.40
2018-11-12T21:58:03.675Z,10.40
2018-11-12T22:00:31.741Z,10.50
2018-11-12T22:03:02.194Z,10.50
2018-11-12T22:05:31.245Z,10.50
2018-11-12T22:07:59.447Z,10.50
2018-11-12T22:10:27.589Z,10.60
2018-11-12T22:12:55.989Z,10.50
2018-11-12T22:15:24.099Z,10.50
2018-11-12T22:17:52.258Z,10.50
2018-11-12T22:20:21.645Z,10.50
2018-11-12T22:22:49.745Z,10.50
2018-11-12T22:25:19.093Z,10.60
2018-11-12T22:27:47.880Z,10.60
2018-11-12T22:30:18.300Z,10.60
2018-11-12T22:32:47.688Z,10.70
2018-11-12T22:35:15.834Z,10.70
2018-11-12T22:37:44.370Z,10.70
2018-11-12T22:40:13.383Z,10.70
2018-11-12T22:42:42.158Z,10.70
2018-11-12T22:45:12.290Z,10.70
2018-11-12T22:47:40.365Z,10.80
2018-11-12T22:50:09.373Z,10.80
2018-11-12T22:52:38.104Z,10.70
2018-11-12T22:55:06.376Z,10.80
2018-11-12T22:57:34.551Z,10.80
2018-11-12T23:00:02.673Z,10.80
2018-11-12T23:02:30.791Z,10.80
2018-11-12T23:04:58.894Z,10.90
2018-11-12T23:07:27.006Z,10.90
2018-11-12T23:09:55.084Z,10.90
2018-11-12T23:12:23.150Z,10.90
2018-11-12T23:14:51.186Z,10.90
2018-11-12T23:17:19.280Z,10.90
2018-11-12T23:19:47.329Z,10.90
2018-11-12T23:22:15.383Z,10.80
2018-11-12T23:24:43.536Z,10.80
2018-11-12T23:27:11.567Z,10.70
2018-11-12T23:29:39.672Z,10.70
2018-11-12T23:32:07.690Z,10.70
2018-11-12T23:34:35.750Z,10.70
2018-11-12T23:37:03.842Z,10.70
2018-11-12T23:39:31.898Z,10.70
2018-11-12T23:42:00.038Z,10.60
2018-11-12T23:44:28.156Z,10.60
2018-11-12T23:46:56.468Z,10.50
2018-11-12T23:49:24.405Z,10.50
2018-11-12T23:51:52.481Z,10.50
2018-11-12T23:54:20.557Z,10.50
2018-11-12T23:56:48.719Z,10.40
2018-11-12T23:59:16.806Z,10.40
